sensor_id;sensor_type;location;lat;lon;timestamp;temperature;humidity
27306;DHT22;14792;50.886;6.468;2024-01-30T00:02:52;7.40;99.90
27306;DHT22;14792;50.886;6.468;2024-01-30T00:05:53;7.40;99.90
27306;DHT22;14792;50.886;6.468;2024-01-30T00:08:55;7.40;99.90
27306;DHT22;14792;50.886;6.468;2024-01-30T00:11:56;7.50;99.90
27306;DHT22;14792;50.886;6.468;2024-01-30T00:14:58;7.50;99.90
27306;DHT22;14792;50.886;6.468;2024-01-30T00:18:00;7.50;99.90
27306;DHT22;14792;50.886;6.468;2024-01-30T00:21:01;7.50;99.90
27306;DHT22;14792;50.886;6.468;2024-01-30T00:24:03;7.50;99.90
27306;DHT22;14792;50.886;6.468;2024-01-30T00:27:04;7.50;99.90
27306;DHT22;14792;50.886;6.468;2024-01-30T00:30:06;7.50;99.90
27306;DHT22;14792;50.886;6.468;2024-01-30T00:33:08;7.50;99.90
27306;DHT22;14792;50.886;6.468;2024-01-30T00:36:09;7.50;99.90
27306;DHT22;14792;50.886;6.468;2024-01-30T00:39:11;7.50;99.90
27306;DHT22;14792;50.886;6.468;2024-01-30T00:42:12;7.40;99.90
27306;DHT22;14792;50.886;6.468;2024-01-30T00:45:14;7.50;99.90
27306;DHT22;14792;50.886;6.468;2024-01-30T00:48:15;7.50;99.90
27306;DHT22;14792;50.886;6.468;2024-01-30T00:51:17;7.60;99.90
27306;DHT22;14792;50.886;6.468;2024-01-30T00:54:19;7.60;99.90
27306;DHT22;14792;50.886;6.468;2024-01-30T00:57:20;7.60;99.90
27306;DHT22;14792;50.886;6.468;2024-01-30T01:00:22;7.60;99.90
27306;DHT22;14792;50.886;6.468;2024-01-30T01:03:23;7.60;99.90
27306;DHT22;14792;50.886;6.468;2024-01-30T01:06:25;7.50;99.90
27306;DHT22;14792;50.886;6.468;2024-01-30T01:09:27;7.40;99.90
27306;DHT22;14792;50.886;6.468;2024-01-30T01:12:28;7.40;99.90
27306;DHT22;14792;50.886;6.468;2024-01-30T01:15:30;7.40;99.90
27306;DHT22;14792;50.886;6.468;2024-01-30T01:18:31;7.40;99.90
27306;DHT22;14792;50.886;6.468;2024-01-30T01:21:33;7.40;99.90
27306;DHT22;14792;50.886;6.468;2024-01-30T01:24:35;7.40;99.90
27306;DHT22;14792;50.886;6.468;2024-01-30T01:27:36;7.40;99.90
27306;DHT22;14792;50.886;6.468;2024-01-30T01:30:38;7.30;99.90
27306;DHT22;14792;50.886;6.468;2024-01-30T01:33:39;7.30;99.90
27306;DHT22;14792;50.886;6.468;2024-01-30T01:36:41;7.40;99.90
27306;DHT22;14792;50.886;6.468;2024-01-30T01:39:42;7.30;99.90
27306;DHT22;14792;50.886;6.468;2024-01-30T01:42:44;7.30;99.90
27306;DHT22;14792;50.886;6.468;2024-01-30T01:45:46;7.30;99.90
27306;DHT22;14792;50.886;6.468;2024-01-30T01:48:47;7.30;99.90
27306;DHT22;14792;50.886;6.468;2024-01-30T01:51:49;7.30;99.90
27306;DHT22;14792;50.886;6.468;2024-01-30T01:54:50;7.30;99.90
27306;DHT22;14792;50.886;6.468;2024-01-30T01:57:52;7.30;99.90
27306;DHT22;14792;50.886;6.468;2024-01-30T02:00:54;7.20;99.90
27306;DHT22;14792;50.886;6.468;2024-01-30T02:03:55;7.20;99.90
27306;DHT22;14792;50.886;6.468;2024-01-30T02:06:57;7.20;99.90
27306;DHT22;14792;50.886;6.468;2024-01-30T02:09:58;7.20;99.90
27306;DHT22;14792;50.886;6.468;2024-01-30T02:13:00;7.20;99.90
27306;DHT22;14792;50.886;6.468;2024-01-30T02:16:02;7.10;99.90
27306;DHT22;14792;50.886;6.468;2024-01-30T02:19:03;7.10;99.90
27306;DHT22;14792;50.886;6.468;2024-01-30T02:22:05;7.10;99.90
27306;DHT22;14792;50.886;6.468;2024-01-30T02:25:06;7.10;99.90
27306;DHT22;14792;50.886;6.468;2024-01-30T02:28:08;7.10;99.90
27306;DHT22;14792;50.886;6.468;2024-01-30T02:31:09;7.10;99.90
27306;DHT22;14792;50.886;6.468;2024-01-30T02:34:11;7.10;99.90
27306;DHT22;14792;50.886;6.468;2024-01-30T02:37:13;7.00;99.90
27306;DHT22;14792;50.886;6.468;2024-01-30T02:40:14;7.00;99.90
27306;DHT22;14792;50.886;6.468;2024-01-30T02:43:16;7.10;99.90
27306;DHT22;14792;50.886;6.468;2024-01-30T02:46:17;7.10;99.90
27306;DHT22;14792;50.886;6.468;2024-01-30T02:49:19;7.00;99.90
27306;DHT22;14792;50.886;6.468;2024-01-30T02:52:21;7.00;99.90
27306;DHT22;14792;50.886;6.468;2024-01-30T02:55:22;7.00;99.90
27306;DHT22;14792;50.886;6.468;2024-01-30T02:58:24;7.00;99.90
27306;DHT22;14792;50.886;6.468;2024-01-30T03:01:25;7.00;99.90
27306;DHT22;14792;50.886;6.468;2024-01-30T03:04:27;7.00;99.90
27306;DHT22;14792;50.886;6.468;2024-01-30T03:07:29;7.10;99.90
27306;DHT22;14792;50.886;6.468;2024-01-30T03:10:30;7.00;99.90
27306;DHT22;14792;50.886;6.468;2024-01-30T03:13:32;7.00;99.90
27306;DHT22;14792;50.886;6.468;2024-01-30T03:16:33;7.00;99.90
27306;DHT22;14792;50.886;6.468;2024-01-30T03:19:35;7.00;99.90
27306;DHT22;14792;50.886;6.468;2024-01-30T03:22:36;7.00;99.90
27306;DHT22;14792;50.886;6.468;2024-01-30T03:25:38;7.00;99.90
27306;DHT22;14792;50.886;6.468;2024-01-30T03:28:40;6.90;99.90
27306;DHT22;14792;50.886;6.468;2024-01-30T03:31:41;6.90;99.90
27306;DHT22;14792;50.886;6.468;2024-01-30T03:34:43;6.90;99.90
27306;DHT22;14792;50.886;6.468;2024-01-30T03:37:44;6.90;99.90
27306;DHT22;14792;50.886;6.468;2024-01-30T03:40:46;6.90;99.90
27306;DHT22;14792;50.886;6.468;2024-01-30T03:43:48;6.90;99.90
27306;DHT22;14792;50.886;6.468;2024-01-30T03:46:49;6.90;99.90
27306;DHT22;14792;50.886;6.468;2024-01-30T03:49:51;6.80;99.90
27306;DHT22;14792;50.886;6.468;2024-01-30T03:52:52;6.80;99.90
27306;DHT22;14792;50.886;6.468;2024-01-30T03:55:54;6.80;99.90
27306;DHT22;14792;50.886;6.468;2024-01-30T03:58:55;6.80;99.90
27306;DHT22;14792;50.886;6.468;2024-01-30T04:01:57;6.70;99.90
27306;DHT22;14792;50.886;6.468;2024-01-30T04:04:59;6.70;99.90
27306;DHT22;14792;50.886;6.468;2024-01-30T04:08:00;6.60;99.90
27306;DHT22;14792;50.886;6.468;2024-01-30T04:11:05;6.50;99.90
27306;DHT22;14792;50.886;6.468;2024-01-30T04:14:09;6.60;99.90
27306;DHT22;14792;50.886;6.468;2024-01-30T04:17:10;6.60;99.90
27306;DHT22;14792;50.886;6.468;2024-01-30T04:20:14;6.60;99.90
27306;DHT22;14792;50.886;6.468;2024-01-30T04:23:16;6.70;99.90
27306;DHT22;14792;50.886;6.468;2024-01-30T04:26:17;6.70;99.90
27306;DHT22;14792;50.886;6.468;2024-01-30T04:29:19;6.70;99.90
27306;DHT22;14792;50.886;6.468;2024-01-30T04:32:21;6.70;99.90
27306;DHT22;14792;50.886;6.468;2024-01-30T04:35:22;6.70;99.90
27306;DHT22;14792;50.886;6.468;2024-01-30T04:38:24;6.80;99.90
27306;DHT22;14792;50.886;6.468;2024-01-30T04:41:25;6.70;99.90
27306;DHT22;14792;50.886;6.468;2024-01-30T04:44:27;6.70;99.90
27306;DHT22;14792;50.886;6.468;2024-01-30T04:47:29;6.80;99.90
27306;DHT22;14792;50.886;6.468;2024-01-30T04:50:30;6.80;99.90
27306;DHT22;14792;50.886;6.468;2024-01-30T04:53:32;6.80;99.90
27306;DHT22;14792;50.886;6.468;2024-01-30T04:56:33;6.70;99.90
27306;DHT22;14792;50.886;6.468;2024-01-30T04:59:35;6.70;99.90
27306;DHT22;14792;50.886;6.468;2024-01-30T05:02:37;6.60;99.90
27306;DHT22;14792;50.886;6.468;2024-01-30T05:05:38;6.60;99.90
27306;DHT22;14792;50.886;6.468;2024-01-30T05:08:40;6.50;99.90
27306;DHT22;14792;50.886;6.468;2024-01-30T05:11:41;6.50;99.90
27306;DHT22;14792;50.886;6.468;2024-01-30T05:14:43;6.50;99.90
27306;DHT22;14792;50.886;6.468;2024-01-30T05:17:44;6.50;99.90
27306;DHT22;14792;50.886;6.468;2024-01-30T05:20:46;6.40;99.90
27306;DHT22;14792;50.886;6.468;2024-01-30T05:23:48;6.40;99.90
27306;DHT22;14792;50.886;6.468;2024-01-30T05:26:49;6.30;99.90
27306;DHT22;14792;50.886;6.468;2024-01-30T05:29:51;6.30;99.90
27306;DHT22;14792;50.886;6.468;2024-01-30T05:32:52;6.30;99.90
27306;DHT22;14792;50.886;6.468;2024-01-30T05:35:54;6.30;99.90
27306;DHT22;14792;50.886;6.468;2024-01-30T05:38:56;6.20;99.90
27306;DHT22;14792;50.886;6.468;2024-01-30T05:41:57;6.30;99.90
27306;DHT22;14792;50.886;6.468;2024-01-30T05:44:59;6.30;99.90
27306;DHT22;14792;50.886;6.468;2024-01-30T05:48:00;6.40;99.90
27306;DHT22;14792;50.886;6.468;2024-01-30T05:51:02;6.50;99.90
27306;DHT22;14792;50.886;6.468;2024-01-30T05:54:04;6.50;99.90
27306;DHT22;14792;50.886;6.468;2024-01-30T05:57:05;6.50;99.90
27306;DHT22;14792;50.886;6.468;2024-01-30T06:00:07;6.40;99.90
27306;DHT22;14792;50.886;6.468;2024-01-30T06:03:08;6.40;99.90
27306;DHT22;14792;50.886;6.468;2024-01-30T06:06:10;6.40;99.90
27306;DHT22;14792;50.886;6.468;2024-01-30T06:09:11;6.50;99.90
27306;DHT22;14792;50.886;6.468;2024-01-30T06:12:13;6.50;99.90
27306;DHT22;14792;50.886;6.468;2024-01-30T06:15:15;6.70;99.90
27306;DHT22;14792;50.886;6.468;2024-01-30T06:18:16;6.70;99.90
27306;DHT22;14792;50.886;6.468;2024-01-30T06:21:18;7.00;99.90
27306;DHT22;14792;50.886;6.468;2024-01-30T06:24:19;7.00;99.90
27306;DHT22;14792;50.886;6.468;2024-01-30T06:27:21;7.10;99.90
27306;DHT22;14792;50.886;6.468;2024-01-30T06:30:23;7.20;99.90
27306;DHT22;14792;50.886;6.468;2024-01-30T06:33:24;7.20;99.90
27306;DHT22;14792;50.886;6.468;2024-01-30T06:36:26;7.20;99.90
27306;DHT22;14792;50.886;6.468;2024-01-30T06:39:27;7.10;99.90
27306;DHT22;14792;50.886;6.468;2024-01-30T06:42:29;7.10;99.90
27306;DHT22;14792;50.886;6.468;2024-01-30T06:45:30;7.00;99.90
27306;DHT22;14792;50.886;6.468;2024-01-30T06:48:32;7.20;99.90
27306;DHT22;14792;50.886;6.468;2024-01-30T06:51:34;7.40;99.90
27306;DHT22;14792;50.886;6.468;2024-01-30T06:54:35;7.40;99.90
27306;DHT22;14792;50.886;6.468;2024-01-30T06:57:37;7.60;99.90
27306;DHT22;14792;50.886;6.468;2024-01-30T07:00:38;7.70;99.90
27306;DHT22;14792;50.886;6.468;2024-01-30T07:03:40;7.70;99.90
27306;DHT22;14792;50.886;6.468;2024-01-30T07:06:42;7.80;99.90
27306;DHT22;14792;50.886;6.468;2024-01-30T07:09:43;7.90;99.90
27306;DHT22;14792;50.886;6.468;2024-01-30T07:12:45;8.00;99.90
27306;DHT22;14792;50.886;6.468;2024-01-30T07:15:52;8.00;99.90
27306;DHT22;14792;50.886;6.468;2024-01-30T07:18:56;7.90;99.90
27306;DHT22;14792;50.886;6.468;2024-01-30T07:21:58;7.80;99.90
27306;DHT22;14792;50.886;6.468;2024-01-30T07:24:59;7.70;99.90
27306;DHT22;14792;50.886;6.468;2024-01-30T07:28:01;7.70;99.90
27306;DHT22;14792;50.886;6.468;2024-01-30T07:31:03;7.80;99.90
27306;DHT22;14792;50.886;6.468;2024-01-30T07:34:04;7.90;99.90
27306;DHT22;14792;50.886;6.468;2024-01-30T07:37:06;7.90;99.90
27306;DHT22;14792;50.886;6.468;2024-01-30T07:40:07;7.90;99.90
27306;DHT22;14792;50.886;6.468;2024-01-30T07:43:09;7.80;99.90
27306;DHT22;14792;50.886;6.468;2024-01-30T07:46:10;7.70;99.90
27306;DHT22;14792;50.886;6.468;2024-01-30T07:49:12;7.60;99.90
27306;DHT22;14792;50.886;6.468;2024-01-30T07:52:16;7.60;99.90
27306;DHT22;14792;50.886;6.468;2024-01-30T07:55:26;7.60;99.90
27306;DHT22;14792;50.886;6.468;2024-01-30T08:05:07;7.60;99.90
27306;DHT22;14792;50.886;6.468;2024-01-30T08:08:09;7.60;99.90
27306;DHT22;14792;50.886;6.468;2024-01-30T08:11:10;7.70;99.90
27306;DHT22;14792;50.886;6.468;2024-01-30T08:14:22;7.70;99.90
27306;DHT22;14792;50.886;6.468;2024-01-30T08:17:13;7.70;99.90
27306;DHT22;14792;50.886;6.468;2024-01-30T08:20:15;7.70;99.90
27306;DHT22;14792;50.886;6.468;2024-01-30T08:23:17;7.70;99.90
27306;DHT22;14792;50.886;6.468;2024-01-30T08:29:50;7.80;99.90
27306;DHT22;14792;50.886;6.468;2024-01-30T08:32:57;7.90;99.90
27306;DHT22;14792;50.886;6.468;2024-01-30T08:36:02;7.90;99.90
27306;DHT22;14792;50.886;6.468;2024-01-30T08:39:36;8.00;99.90
27306;DHT22;14792;50.886;6.468;2024-01-30T08:42:37;8.00;99.90
27306;DHT22;14792;50.886;6.468;2024-01-30T08:45:39;8.10;99.90
27306;DHT22;14792;50.886;6.468;2024-01-30T08:48:43;8.10;99.90
27306;DHT22;14792;50.886;6.468;2024-01-30T08:58:29;8.20;99.90
27306;DHT22;14792;50.886;6.468;2024-01-30T09:01:31;8.20;99.90
27306;DHT22;14792;50.886;6.468;2024-01-30T09:04:33;8.20;99.90
27306;DHT22;14792;50.886;6.468;2024-01-30T09:07:34;8.30;99.90
27306;DHT22;14792;50.886;6.468;2024-01-30T09:10:36;8.30;99.90
27306;DHT22;14792;50.886;6.468;2024-01-30T09:20:13;8.40;99.90
27306;DHT22;14792;50.886;6.468;2024-01-30T09:26:36;8.50;99.90
27306;DHT22;14792;50.886;6.468;2024-01-30T09:29:38;8.50;99.90
27306;DHT22;14792;50.886;6.468;2024-01-30T09:32:40;8.60;99.90
27306;DHT22;14792;50.886;6.468;2024-01-30T09:35:41;8.70;99.90
27306;DHT22;14792;50.886;6.468;2024-01-30T09:38:43;8.70;99.90
27306;DHT22;14792;50.886;6.468;2024-01-30T09:41:55;8.70;99.90
27306;DHT22;14792;50.886;6.468;2024-01-30T09:44:55;8.80;99.90
27306;DHT22;14792;50.886;6.468;2024-01-30T09:47:58;9.00;99.90
27306;DHT22;14792;50.886;6.468;2024-01-30T09:50:58;9.10;99.90
27306;DHT22;14792;50.886;6.468;2024-01-30T09:53:59;9.30;99.90
27306;DHT22;14792;50.886;6.468;2024-01-30T09:57:01;9.40;99.90
27306;DHT22;14792;50.886;6.468;2024-01-30T10:00:06;9.50;99.90
27306;DHT22;14792;50.886;6.468;2024-01-30T10:03:07;9.60;99.90
27306;DHT22;14792;50.886;6.468;2024-01-30T10:06:08;9.70;99.90
27306;DHT22;14792;50.886;6.468;2024-01-30T10:09:10;9.80;99.90
27306;DHT22;14792;50.886;6.468;2024-01-30T10:12:12;10.00;99.90
27306;DHT22;14792;50.886;6.468;2024-01-30T10:15:13;10.10;99.90
27306;DHT22;14792;50.886;6.468;2024-01-30T10:18:15;10.30;99.90
27306;DHT22;14792;50.886;6.468;2024-01-30T10:21:16;10.30;99.90
27306;DHT22;14792;50.886;6.468;2024-01-30T10:24:18;10.40;99.90
27306;DHT22;14792;50.886;6.468;2024-01-30T10:27:29;10.50;99.90
27306;DHT22;14792;50.886;6.468;2024-01-30T10:30:24;10.60;99.90
27306;DHT22;14792;50.886;6.468;2024-01-30T10:33:26;10.70;99.90
27306;DHT22;14792;50.886;6.468;2024-01-30T10:36:30;10.80;99.90
27306;DHT22;14792;50.886;6.468;2024-01-30T10:39:31;10.90;99.90
27306;DHT22;14792;50.886;6.468;2024-01-30T10:42:33;11.00;99.90
27306;DHT22;14792;50.886;6.468;2024-01-30T10:45:34;11.10;99.90
27306;DHT22;14792;50.886;6.468;2024-01-30T10:48:36;11.30;99.90
27306;DHT22;14792;50.886;6.468;2024-01-30T10:51:38;11.40;99.90
27306;DHT22;14792;50.886;6.468;2024-01-30T10:54:40;11.60;99.90
27306;DHT22;14792;50.886;6.468;2024-01-30T10:57:41;11.60;99.90
27306;DHT22;14792;50.886;6.468;2024-01-30T11:00:42;11.70;99.90
27306;DHT22;14792;50.886;6.468;2024-01-30T11:03:44;11.80;99.90
27306;DHT22;14792;50.886;6.468;2024-01-30T11:06:46;11.80;99.90
27306;DHT22;14792;50.886;6.468;2024-01-30T11:09:50;11.90;99.90
27306;DHT22;14792;50.886;6.468;2024-01-30T11:12:51;11.90;99.90
27306;DHT22;14792;50.886;6.468;2024-01-30T11:15:53;11.90;99.90
27306;DHT22;14792;50.886;6.468;2024-01-30T11:18:55;11.90;99.90
27306;DHT22;14792;50.886;6.468;2024-01-30T11:21:56;11.90;99.90
27306;DHT22;14792;50.886;6.468;2024-01-30T11:24:58;11.90;99.90
27306;DHT22;14792;50.886;6.468;2024-01-30T11:27:59;11.90;99.90
27306;DHT22;14792;50.886;6.468;2024-01-30T11:31:07;11.90;99.90
27306;DHT22;14792;50.886;6.468;2024-01-30T11:34:09;11.90;99.90
27306;DHT22;14792;50.886;6.468;2024-01-30T11:37:10;11.90;99.90
27306;DHT22;14792;50.886;6.468;2024-01-30T11:40:12;12.00;99.90
27306;DHT22;14792;50.886;6.468;2024-01-30T11:43:13;12.00;99.90
27306;DHT22;14792;50.886;6.468;2024-01-30T11:46:15;12.00;99.90
27306;DHT22;14792;50.886;6.468;2024-01-30T11:49:17;12.00;99.90
27306;DHT22;14792;50.886;6.468;2024-01-30T11:52:18;12.00;99.90
27306;DHT22;14792;50.886;6.468;2024-01-30T11:55:20;12.00;99.90
27306;DHT22;14792;50.886;6.468;2024-01-30T11:58:24;12.00;99.90
27306;DHT22;14792;50.886;6.468;2024-01-30T12:01:23;12.00;99.90
27306;DHT22;14792;50.886;6.468;2024-01-30T12:04:27;12.00;99.90
27306;DHT22;14792;50.886;6.468;2024-01-30T12:07:26;12.00;99.90
27306;DHT22;14792;50.886;6.468;2024-01-30T12:10:28;12.10;99.90
27306;DHT22;14792;50.886;6.468;2024-01-30T12:13:29;12.10;99.90
27306;DHT22;14792;50.886;6.468;2024-01-30T12:16:31;12.00;99.90
27306;DHT22;14792;50.886;6.468;2024-01-30T12:19:32;12.10;99.90
27306;DHT22;14792;50.886;6.468;2024-01-30T12:22:40;12.00;99.90
27306;DHT22;14792;50.886;6.468;2024-01-30T12:25:41;12.00;99.90
27306;DHT22;14792;50.886;6.468;2024-01-30T12:28:49;12.00;99.90
27306;DHT22;14792;50.886;6.468;2024-01-30T12:31:53;11.90;99.90
27306;DHT22;14792;50.886;6.468;2024-01-30T12:34:55;11.90;99.90
27306;DHT22;14792;50.886;6.468;2024-01-30T12:37:56;11.90;99.90
27306;DHT22;14792;50.886;6.468;2024-01-30T12:40:58;11.90;99.90
27306;DHT22;14792;50.886;6.468;2024-01-30T12:44:00;11.90;99.90
27306;DHT22;14792;50.886;6.468;2024-01-30T12:47:04;11.90;99.90
27306;DHT22;14792;50.886;6.468;2024-01-30T12:50:05;11.90;99.90
27306;DHT22;14792;50.886;6.468;2024-01-30T12:53:07;11.90;99.90
27306;DHT22;14792;50.886;6.468;2024-01-30T12:56:08;11.90;99.90
27306;DHT22;14792;50.886;6.468;2024-01-30T12:59:10;11.90;99.90
27306;DHT22;14792;50.886;6.468;2024-01-30T13:02:14;11.90;99.90
27306;DHT22;14792;50.886;6.468;2024-01-30T13:05:16;11.90;99.90
27306;DHT22;14792;50.886;6.468;2024-01-30T13:08:18;11.90;99.90
27306;DHT22;14792;50.886;6.468;2024-01-30T13:11:19;11.90;99.90
27306;DHT22;14792;50.886;6.468;2024-01-30T13:14:21;11.90;99.90
27306;DHT22;14792;50.886;6.468;2024-01-30T13:17:22;11.90;99.90
27306;DHT22;14792;50.886;6.468;2024-01-30T13:20:24;11.90;99.90
27306;DHT22;14792;50.886;6.468;2024-01-30T13:23:26;11.90;99.90
27306;DHT22;14792;50.886;6.468;2024-01-30T13:26:27;11.90;99.90
27306;DHT22;14792;50.886;6.468;2024-01-30T13:29:29;11.90;99.90
27306;DHT22;14792;50.886;6.468;2024-01-30T13:32:30;11.90;99.90
27306;DHT22;14792;50.886;6.468;2024-01-30T13:35:32;12.00;99.90
27306;DHT22;14792;50.886;6.468;2024-01-30T13:38:34;12.10;99.90
27306;DHT22;14792;50.886;6.468;2024-01-30T13:41:35;12.10;99.90
27306;DHT22;14792;50.886;6.468;2024-01-30T13:44:37;12.10;99.90
27306;DHT22;14792;50.886;6.468;2024-01-30T13:47:38;12.10;99.90
27306;DHT22;14792;50.886;6.468;2024-01-30T13:50:40;12.00;99.90
27306;DHT22;14792;50.886;6.468;2024-01-30T13:53:41;12.00;99.90
27306;DHT22;14792;50.886;6.468;2024-01-30T13:56:43;12.00;99.90
27306;DHT22;14792;50.886;6.468;2024-01-30T13:59:45;12.00;99.90
27306;DHT22;14792;50.886;6.468;2024-01-30T14:02:46;12.00;99.90
27306;DHT22;14792;50.886;6.468;2024-01-30T14:05:48;12.00;99.90
27306;DHT22;14792;50.886;6.468;2024-01-30T14:08:49;12.00;99.90
27306;DHT22;14792;50.886;6.468;2024-01-30T14:11:51;12.10;99.90
27306;DHT22;14792;50.886;6.468;2024-01-30T14:14:53;12.10;99.90
27306;DHT22;14792;50.886;6.468;2024-01-30T14:17:54;12.10;99.90
27306;DHT22;14792;50.886;6.468;2024-01-30T14:20:56;12.10;99.90
27306;DHT22;14792;50.886;6.468;2024-01-30T14:23:57;12.10;99.90
27306;DHT22;14792;50.886;6.468;2024-01-30T14:26:59;12.20;99.90
27306;DHT22;14792;50.886;6.468;2024-01-30T14:30:01;12.20;99.90
27306;DHT22;14792;50.886;6.468;2024-01-30T14:33:02;12.20;99.90
27306;DHT22;14792;50.886;6.468;2024-01-30T14:36:04;12.10;99.90
27306;DHT22;14792;50.886;6.468;2024-01-30T14:39:05;12.10;99.90
27306;DHT22;14792;50.886;6.468;2024-01-30T14:42:07;12.00;99.90
27306;DHT22;14792;50.886;6.468;2024-01-30T14:45:09;12.00;99.90
27306;DHT22;14792;50.886;6.468;2024-01-30T14:48:10;12.00;99.90
27306;DHT22;14792;50.886;6.468;2024-01-30T14:51:12;12.00;99.90
27306;DHT22;14792;50.886;6.468;2024-01-30T14:54:13;12.00;99.90
27306;DHT22;14792;50.886;6.468;2024-01-30T14:57:15;12.00;99.90
27306;DHT22;14792;50.886;6.468;2024-01-30T15:00:16;11.90;99.90
27306;DHT22;14792;50.886;6.468;2024-01-30T15:03:18;11.90;99.90
27306;DHT22;14792;50.886;6.468;2024-01-30T15:06:20;11.90;99.90
27306;DHT22;14792;50.886;6.468;2024-01-30T15:09:21;11.90;99.90
27306;DHT22;14792;50.886;6.468;2024-01-30T15:12:23;11.80;99.90
27306;DHT22;14792;50.886;6.468;2024-01-30T15:15:24;11.60;99.90
27306;DHT22;14792;50.886;6.468;2024-01-30T15:18:26;11.30;99.90
27306;DHT22;14792;50.886;6.468;2024-01-30T15:21:28;11.20;99.90
27306;DHT22;14792;50.886;6.468;2024-01-30T15:24:29;11.00;99.90
27306;DHT22;14792;50.886;6.468;2024-01-30T15:27:31;11.00;99.90
27306;DHT22;14792;50.886;6.468;2024-01-30T15:30:35;10.90;99.90
27306;DHT22;14792;50.886;6.468;2024-01-30T15:33:37;10.90;99.90
27306;DHT22;14792;50.886;6.468;2024-01-30T15:36:38;10.90;99.90
27306;DHT22;14792;50.886;6.468;2024-01-30T15:39:40;10.80;99.90
27306;DHT22;14792;50.886;6.468;2024-01-30T15:42:41;10.80;99.90
27306;DHT22;14792;50.886;6.468;2024-01-30T15:45:43;10.70;99.90
27306;DHT22;14792;50.886;6.468;2024-01-30T15:48:47;10.70;99.90
27306;DHT22;14792;50.886;6.468;2024-01-30T15:51:46;10.70;99.90
27306;DHT22;14792;50.886;6.468;2024-01-30T15:54:48;10.70;99.90
27306;DHT22;14792;50.886;6.468;2024-01-30T15:57:50;10.60;99.90
27306;DHT22;14792;50.886;6.468;2024-01-30T16:00:51;10.60;99.90
27306;DHT22;14792;50.886;6.468;2024-01-30T16:03:53;10.50;99.90
27306;DHT22;14792;50.886;6.468;2024-01-30T16:06:54;10.50;99.90
27306;DHT22;14792;50.886;6.468;2024-01-30T16:09:56;10.50;99.90
27306;DHT22;14792;50.886;6.468;2024-01-30T16:12:57;10.40;99.90
27306;DHT22;14792;50.886;6.468;2024-01-30T16:15:59;10.40;99.90
27306;DHT22;14792;50.886;6.468;2024-01-30T16:19:00;10.40;99.90
27306;DHT22;14792;50.886;6.468;2024-01-30T16:22:02;10.30;99.90
27306;DHT22;14792;50.886;6.468;2024-01-30T16:25:04;10.30;99.90
27306;DHT22;14792;50.886;6.468;2024-01-30T16:28:05;10.20;99.90
27306;DHT22;14792;50.886;6.468;2024-01-30T16:31:07;10.20;99.90
27306;DHT22;14792;50.886;6.468;2024-01-30T16:34:08;10.20;99.90
27306;DHT22;14792;50.886;6.468;2024-01-30T16:37:10;10.20;99.90
27306;DHT22;14792;50.886;6.468;2024-01-30T16:40:12;10.10;99.90
27306;DHT22;14792;50.886;6.468;2024-01-30T16:43:13;10.10;99.90
27306;DHT22;14792;50.886;6.468;2024-01-30T16:46:15;10.10;99.90
27306;DHT22;14792;50.886;6.468;2024-01-30T16:49:16;10.00;99.90
27306;DHT22;14792;50.886;6.468;2024-01-30T16:52:18;10.00;99.90
27306;DHT22;14792;50.886;6.468;2024-01-30T16:55:20;10.00;99.90
27306;DHT22;14792;50.886;6.468;2024-01-30T16:58:21;9.90;99.90
27306;DHT22;14792;50.886;6.468;2024-01-30T17:01:23;9.90;99.90
27306;DHT22;14792;50.886;6.468;2024-01-30T17:04:24;9.90;99.90
27306;DHT22;14792;50.886;6.468;2024-01-30T17:07:26;9.90;99.90
27306;DHT22;14792;50.886;6.468;2024-01-30T17:10:27;9.80;99.90
27306;DHT22;14792;50.886;6.468;2024-01-30T17:13:29;9.80;99.90
27306;DHT22;14792;50.886;6.468;2024-01-30T17:16:31;9.80;99.90
27306;DHT22;14792;50.886;6.468;2024-01-30T17:19:32;9.80;99.90
27306;DHT22;14792;50.886;6.468;2024-01-30T17:22:34;9.70;99.90
27306;DHT22;14792;50.886;6.468;2024-01-30T17:25:36;9.70;99.90
27306;DHT22;14792;50.886;6.468;2024-01-30T17:28:37;9.70;99.90
27306;DHT22;14792;50.886;6.468;2024-01-30T17:31:38;9.60;99.90
27306;DHT22;14792;50.886;6.468;2024-01-30T17:34:40;9.60;99.90
27306;DHT22;14792;50.886;6.468;2024-01-30T17:37:42;9.60;99.90
27306;DHT22;14792;50.886;6.468;2024-01-30T17:40:43;9.60;99.90
27306;DHT22;14792;50.886;6.468;2024-01-30T17:43:45;9.50;99.90
27306;DHT22;14792;50.886;6.468;2024-01-30T17:46:46;9.50;99.90
27306;DHT22;14792;50.886;6.468;2024-01-30T17:49:48;9.50;99.90
27306;DHT22;14792;50.886;6.468;2024-01-30T17:52:50;9.50;99.90
27306;DHT22;14792;50.886;6.468;2024-01-30T17:55:51;9.40;99.90
27306;DHT22;14792;50.886;6.468;2024-01-30T17:58:53;9.40;99.90
27306;DHT22;14792;50.886;6.468;2024-01-30T18:01:54;9.40;99.90
27306;DHT22;14792;50.886;6.468;2024-01-30T18:04:56;9.40;99.90
27306;DHT22;14792;50.886;6.468;2024-01-30T18:07:58;9.30;99.90
27306;DHT22;14792;50.886;6.468;2024-01-30T18:10:59;9.30;99.90
27306;DHT22;14792;50.886;6.468;2024-01-30T18:14:01;9.30;99.90
27306;DHT22;14792;50.886;6.468;2024-01-30T18:17:02;9.30;99.90
27306;DHT22;14792;50.886;6.468;2024-01-30T18:20:04;9.30;99.90
27306;DHT22;14792;50.886;6.468;2024-01-30T18:23:06;9.30;99.90
27306;DHT22;14792;50.886;6.468;2024-01-30T18:26:07;9.20;99.90
27306;DHT22;14792;50.886;6.468;2024-01-30T18:29:09;9.20;99.90
27306;DHT22;14792;50.886;6.468;2024-01-30T18:32:10;9.20;99.90
27306;DHT22;14792;50.886;6.468;2024-01-30T18:35:12;9.20;99.90
27306;DHT22;14792;50.886;6.468;2024-01-30T18:38:13;9.20;99.90
27306;DHT22;14792;50.886;6.468;2024-01-30T18:41:15;9.20;99.90
27306;DHT22;14792;50.886;6.468;2024-01-30T18:44:17;9.20;99.90
27306;DHT22;14792;50.886;6.468;2024-01-30T18:47:18;9.10;99.90
27306;DHT22;14792;50.886;6.468;2024-01-30T18:50:20;9.10;99.90
27306;DHT22;14792;50.886;6.468;2024-01-30T18:53:22;9.10;99.90
27306;DHT22;14792;50.886;6.468;2024-01-30T18:56:23;9.10;99.90
27306;DHT22;14792;50.886;6.468;2024-01-30T18:59:25;9.10;99.90
27306;DHT22;14792;50.886;6.468;2024-01-30T19:02:26;9.10;99.90
27306;DHT22;14792;50.886;6.468;2024-01-30T19:05:28;9.10;99.90
27306;DHT22;14792;50.886;6.468;2024-01-30T19:08:29;9.10;99.90
27306;DHT22;14792;50.886;6.468;2024-01-30T19:11:31;9.10;99.90
27306;DHT22;14792;50.886;6.468;2024-01-30T19:14:32;9.10;99.90
27306;DHT22;14792;50.886;6.468;2024-01-30T19:17:34;9.00;99.90
27306;DHT22;14792;50.886;6.468;2024-01-30T19:20:36;9.00;99.90
27306;DHT22;14792;50.886;6.468;2024-01-30T19:23:37;9.00;99.90
27306;DHT22;14792;50.886;6.468;2024-01-30T19:26:39;9.00;99.90
27306;DHT22;14792;50.886;6.468;2024-01-30T19:29:40;8.90;99.90
27306;DHT22;14792;50.886;6.468;2024-01-30T19:32:42;8.90;99.90
27306;DHT22;14792;50.886;6.468;2024-01-30T19:35:44;8.80;99.90
27306;DHT22;14792;50.886;6.468;2024-01-30T19:38:45;8.80;99.90
27306;DHT22;14792;50.886;6.468;2024-01-30T19:41:47;8.80;99.90
27306;DHT22;14792;50.886;6.468;2024-01-30T19:44:48;8.70;99.90
27306;DHT22;14792;50.886;6.468;2024-01-30T19:47:50;8.70;99.90